sensor_id;sensor_type;location;lat;lon;timestamp;temperature;humidity
38325;DHT22;24126;52.672;13.622;2023-02-01T00:00:16;8.50;75.70
38325;DHT22;24126;52.672;13.622;2023-02-01T00:02:44;8.50;75.70
38325;DHT22;24126;52.672;13.622;2023-02-01T00:05:11;8.50;75.70
38325;DHT22;24126;52.672;13.622;2023-02-01T00:07:38;8.60;75.70
38325;DHT22;24126;52.672;13.622;2023-02-01T00:10:05;8.60;75.60
38325;DHT22;24126;52.672;13.622;2023-02-01T00:12:32;8.60;75.60
38325;DHT22;24126;52.672;13.622;2023-02-01T00:14:59;8.60;75.70
38325;DHT22;24126;52.672;13.622;2023-02-01T00:17:26;8.60;75.70
38325;DHT22;24126;52.672;13.622;2023-02-01T00:19:53;8.60;75.50
38325;DHT22;24126;52.672;13.622;2023-02-01T00:22:20;8.60;75.60
38325;DHT22;24126;52.672;13.622;2023-02-01T00:24:47;8.60;75.50
38325;DHT22;24126;52.672;13.622;2023-02-01T00:27:14;8.60;75.60
38325;DHT22;24126;52.672;13.622;2023-02-01T00:29:45;8.60;75.70
38325;DHT22;24126;52.672;13.622;2023-02-01T00:32:12;8.60;75.60
38325;DHT22;24126;52.672;13.622;2023-02-01T00:34:39;8.70;75.70
38325;DHT22;24126;52.672;13.622;2023-02-01T00:37:06;8.70;75.60
38325;DHT22;24126;52.672;13.622;2023-02-01T00:39:34;8.70;75.50
38325;DHT22;24126;52.672;13.622;2023-02-01T00:42:01;8.70;75.20
38325;DHT22;24126;52.672;13.622;2023-02-01T00:44:28;8.70;75.10
38325;DHT22;24126;52.672;13.622;2023-02-01T00:46:59;8.70;75.00
38325;DHT22;24126;52.672;13.622;2023-02-01T00:49:26;8.70;75.00
38325;DHT22;24126;52.672;13.622;2023-02-01T00:51:53;8.70;74.90
38325;DHT22;24126;52.672;13.622;2023-02-01T00:54:20;8.70;75.00
38325;DHT22;24126;52.672;13.622;2023-02-01T00:56:47;8.70;75.00
38325;DHT22;24126;52.672;13.622;2023-02-01T00:59:14;8.70;74.80
38325;DHT22;24126;52.672;13.622;2023-02-01T01:01:41;8.70;74.90
38325;DHT22;24126;52.672;13.622;2023-02-01T01:04:08;8.70;74.80
38325;DHT22;24126;52.672;13.622;2023-02-01T01:06:36;8.70;74.80
38325;DHT22;24126;52.672;13.622;2023-02-01T01:09:04;8.70;74.70
38325;DHT22;24126;52.672;13.622;2023-02-01T01:11:32;8.80;74.70
38325;DHT22;24126;52.672;13.622;2023-02-01T01:14:00;8.80;74.50
38325;DHT22;24126;52.672;13.622;2023-02-01T01:16:28;8.80;74.50
38325;DHT22;24126;52.672;13.622;2023-02-01T01:18:56;8.80;74.40
38325;DHT22;24126;52.672;13.622;2023-02-01T01:21:23;8.90;74.40
38325;DHT22;24126;52.672;13.622;2023-02-01T01:23:50;8.90;74.30
38325;DHT22;24126;52.672;13.622;2023-02-01T01:26:19;8.90;74.20
38325;DHT22;24126;52.672;13.622;2023-02-01T01:28:46;8.90;74.30
38325;DHT22;24126;52.672;13.622;2023-02-01T01:31:14;8.90;74.20
38325;DHT22;24126;52.672;13.622;2023-02-01T01:33:42;8.90;74.30
38325;DHT22;24126;52.672;13.622;2023-02-01T01:36:10;8.90;74.10
38325;DHT22;24126;52.672;13.622;2023-02-01T01:38:39;8.90;74.70
38325;DHT22;24126;52.672;13.622;2023-02-01T01:41:07;8.90;74.10
38325;DHT22;24126;52.672;13.622;2023-02-01T01:43:46;8.90;74.10
38325;DHT22;24126;52.672;13.622;2023-02-01T01:46:19;8.90;74.00
38325;DHT22;24126;52.672;13.622;2023-02-01T01:48:51;8.90;73.80
38325;DHT22;24126;52.672;13.622;2023-02-01T01:51:20;8.80;73.70
38325;DHT22;24126;52.672;13.622;2023-02-01T01:53:49;8.80;73.80
38325;DHT22;24126;52.672;13.622;2023-02-01T01:56:16;8.80;73.80
38325;DHT22;24126;52.672;13.622;2023-02-01T01:58:43;8.80;73.90
38325;DHT22;24126;52.672;13.622;2023-02-01T02:01:11;8.80;73.90
38325;DHT22;24126;52.672;13.622;2023-02-01T02:03:39;8.80;73.90
38325;DHT22;24126;52.672;13.622;2023-02-01T02:06:10;8.80;73.90
38325;DHT22;24126;52.672;13.622;2023-02-01T02:08:39;8.80;73.80
38325;DHT22;24126;52.672;13.622;2023-02-01T02:11:09;8.90;73.80
38325;DHT22;24126;52.672;13.622;2023-02-01T02:13:38;8.90;73.70
38325;DHT22;24126;52.672;13.622;2023-02-01T02:34:28;8.90;73.20
38325;DHT22;24126;52.672;13.622;2023-02-01T02:39:53;8.90;73.20
38325;DHT22;24126;52.672;13.622;2023-02-01T02:45:42;8.80;73.00
38325;DHT22;24126;52.672;13.622;2023-02-01T02:48:39;8.80;73.00
38325;DHT22;24126;52.672;13.622;2023-02-01T02:54:15;8.80;73.20
38325;DHT22;24126;52.672;13.622;2023-02-01T02:57:03;8.80;73.30
38325;DHT22;24126;52.672;13.622;2023-02-01T02:59:49;8.80;73.30
38325;DHT22;24126;52.672;13.622;2023-02-01T03:02:34;8.80;73.30
38325;DHT22;24126;52.672;13.622;2023-02-01T03:05:18;8.80;73.40
38325;DHT22;24126;52.672;13.622;2023-02-01T03:07:49;8.80;73.30
38325;DHT22;24126;52.672;13.622;2023-02-01T03:11:21;8.80;73.40
38325;DHT22;24126;52.672;13.622;2023-02-01T03:13:19;8.70;73.30
38325;DHT22;24126;52.672;13.622;2023-02-01T03:15:51;8.70;73.40
38325;DHT22;24126;52.672;13.622;2023-02-01T03:18:23;8.70;73.40
38325;DHT22;24126;52.672;13.622;2023-02-01T03:20:51;8.70;73.40
38325;DHT22;24126;52.672;13.622;2023-02-01T03:23:21;8.60;73.40
38325;DHT22;24126;52.672;13.622;2023-02-01T03:25:49;8.60;73.50
38325;DHT22;24126;52.672;13.622;2023-02-01T03:28:17;8.60;73.40
38325;DHT22;24126;52.672;13.622;2023-02-01T03:30:47;8.60;73.40
38325;DHT22;24126;52.672;13.622;2023-02-01T03:33:16;8.60;73.60
38325;DHT22;24126;52.672;13.622;2023-02-01T03:38:26;8.60;73.40
38325;DHT22;24126;52.672;13.622;2023-02-01T03:40:57;8.60;73.50
38325;DHT22;24126;52.672;13.622;2023-02-01T03:43:27;8.60;73.40
38325;DHT22;24126;52.672;13.622;2023-02-01T03:45:58;8.60;73.40
38325;DHT22;24126;52.672;13.622;2023-02-01T03:48:27;8.60;73.50
38325;DHT22;24126;52.672;13.622;2023-02-01T03:50:56;8.50;73.40
38325;DHT22;24126;52.672;13.622;2023-02-01T03:53:23;8.50;73.50
38325;DHT22;24126;52.672;13.622;2023-02-01T03:55:52;8.50;73.60
38325;DHT22;24126;52.672;13.622;2023-02-01T03:58:21;8.50;73.50
38325;DHT22;24126;52.672;13.622;2023-02-01T04:00:56;8.50;73.50
38325;DHT22;24126;52.672;13.622;2023-02-01T04:03:25;8.50;73.50
38325;DHT22;24126;52.672;13.622;2023-02-01T04:05:52;8.50;73.50
38325;DHT22;24126;52.672;13.622;2023-02-01T04:08:24;8.50;73.50
38325;DHT22;24126;52.672;13.622;2023-02-01T04:10:51;8.50;73.60
38325;DHT22;24126;52.672;13.622;2023-02-01T04:13:18;8.50;73.50
38325;DHT22;24126;52.672;13.622;2023-02-01T04:15:46;8.50;73.60
38325;DHT22;24126;52.672;13.622;2023-02-01T04:18:15;8.50;73.60
38325;DHT22;24126;52.672;13.622;2023-02-01T04:20:42;8.50;73.60
38325;DHT22;24126;52.672;13.622;2023-02-01T04:23:09;8.50;73.60
38325;DHT22;24126;52.672;13.622;2023-02-01T04:25:36;8.50;73.70
38325;DHT22;24126;52.672;13.622;2023-02-01T04:28:03;8.50;73.70
38325;DHT22;24126;52.672;13.622;2023-02-01T04:30:32;8.50;73.80
38325;DHT22;24126;52.672;13.622;2023-02-01T04:32:59;8.50;73.80
38325;DHT22;24126;52.672;13.622;2023-02-01T04:35:29;8.50;73.70
38325;DHT22;24126;52.672;13.622;2023-02-01T04:37:56;8.50;73.70
38325;DHT22;24126;52.672;13.622;2023-02-01T04:40:23;8.60;73.80
38325;DHT22;24126;52.672;13.622;2023-02-01T04:42:50;8.60;73.70
38325;DHT22;24126;52.672;13.622;2023-02-01T04:45:17;8.60;73.70
38325;DHT22;24126;52.672;13.622;2023-02-01T04:47:44;8.60;73.60
38325;DHT22;24126;52.672;13.622;2023-02-01T04:50:11;8.60;73.70
38325;DHT22;24126;52.672;13.622;2023-02-01T04:52:39;8.60;73.70
38325;DHT22;24126;52.672;13.622;2023-02-01T04:55:06;8.60;73.70
38325;DHT22;24126;52.672;13.622;2023-02-01T04:57:33;8.60;73.70
38325;DHT22;24126;52.672;13.622;2023-02-01T05:00:00;8.60;73.70
38325;DHT22;24126;52.672;13.622;2023-02-01T05:02:27;8.60;73.70
38325;DHT22;24126;52.672;13.622;2023-02-01T05:04:54;8.70;73.70
38325;DHT22;24126;52.672;13.622;2023-02-01T05:07:21;8.70;73.70
38325;DHT22;24126;52.672;13.622;2023-02-01T05:09:48;8.70;73.70
38325;DHT22;24126;52.672;13.622;2023-02-01T05:12:15;8.70;73.70
38325;DHT22;24126;52.672;13.622;2023-02-01T05:15:00;8.70;73.70
38325;DHT22;24126;52.672;13.622;2023-02-01T05:17:27;8.80;73.70
38325;DHT22;24126;52.672;13.622;2023-02-01T05:19:54;8.80;73.70
38325;DHT22;24126;52.672;13.622;2023-02-01T05:22:21;8.80;73.70
38325;DHT22;24126;52.672;13.622;2023-02-01T05:24:48;8.90;73.90
38325;DHT22;24126;52.672;13.622;2023-02-01T05:27:15;8.90;73.90
38325;DHT22;24126;52.672;13.622;2023-02-01T05:29:42;8.90;74.10
38325;DHT22;24126;52.672;13.622;2023-02-01T05:32:09;8.90;74.10
38325;DHT22;24126;52.672;13.622;2023-02-01T05:34:37;9.00;74.00
38325;DHT22;24126;52.672;13.622;2023-02-01T05:37:04;9.00;73.90
38325;DHT22;24126;52.672;13.622;2023-02-01T05:39:31;9.10;73.90
38325;DHT22;24126;52.672;13.622;2023-02-01T05:41:58;9.10;73.80
38325;DHT22;24126;52.672;13.622;2023-02-01T05:44:25;9.10;73.70
38325;DHT22;24126;52.672;13.622;2023-02-01T05:46:52;9.10;73.70
38325;DHT22;24126;52.672;13.622;2023-02-01T05:49:19;9.10;73.70
38325;DHT22;24126;52.672;13.622;2023-02-01T05:51:46;9.10;73.50
38325;DHT22;24126;52.672;13.622;2023-02-01T05:54:13;9.10;73.50
38325;DHT22;24126;52.672;13.622;2023-02-01T05:56:40;9.20;73.40
38325;DHT22;24126;52.672;13.622;2023-02-01T05:59:08;9.20;73.30
38325;DHT22;24126;52.672;13.622;2023-02-01T06:01:35;9.10;73.30
38325;DHT22;24126;52.672;13.622;2023-02-01T06:04:02;9.20;73.30
38325;DHT22;24126;52.672;13.622;2023-02-01T06:06:29;9.20;73.30
38325;DHT22;24126;52.672;13.622;2023-02-01T06:09:03;9.20;73.30
38325;DHT22;24126;52.672;13.622;2023-02-01T06:11:40;9.30;73.10
38325;DHT22;24126;52.672;13.622;2023-02-01T06:14:19;9.20;73.00
38325;DHT22;24126;52.672;13.622;2023-02-01T06:16:48;9.30;73.20
38325;DHT22;24126;52.672;13.622;2023-02-01T06:19:15;9.30;73.40
38325;DHT22;24126;52.672;13.622;2023-02-01T06:21:42;9.30;73.50
38325;DHT22;24126;52.672;13.622;2023-02-01T06:24:09;9.30;73.70
38325;DHT22;24126;52.672;13.622;2023-02-01T06:26:36;9.30;73.80
38325;DHT22;24126;52.672;13.622;2023-02-01T06:29:04;9.30;74.00
38325;DHT22;24126;52.672;13.622;2023-02-01T06:31:32;9.30;74.10
38325;DHT22;24126;52.672;13.622;2023-02-01T06:34:00;9.30;74.30
38325;DHT22;24126;52.672;13.622;2023-02-01T06:36:28;9.20;74.30
38325;DHT22;24126;52.672;13.622;2023-02-01T06:38:56;9.20;74.50
38325;DHT22;24126;52.672;13.622;2023-02-01T06:41:25;9.20;74.60
38325;DHT22;24126;52.672;13.622;2023-02-01T06:43:52;9.20;74.80
38325;DHT22;24126;52.672;13.622;2023-02-01T06:46:19;9.10;74.90
38325;DHT22;24126;52.672;13.622;2023-02-01T06:48:46;9.10;75.00
38325;DHT22;24126;52.672;13.622;2023-02-01T06:51:21;9.10;75.10
38325;DHT22;24126;52.672;13.622;2023-02-01T06:53:49;9.10;75.30
38325;DHT22;24126;52.672;13.622;2023-02-01T06:56:16;9.00;75.30
38325;DHT22;24126;52.672;13.622;2023-02-01T06:58:43;9.00;75.40
38325;DHT22;24126;52.672;13.622;2023-02-01T07:01:10;9.10;75.50
38325;DHT22;24126;52.672;13.622;2023-02-01T07:03:37;9.00;75.50
38325;DHT22;24126;52.672;13.622;2023-02-01T07:06:05;9.00;75.60
38325;DHT22;24126;52.672;13.622;2023-02-01T07:08:33;9.10;75.80
38325;DHT22;24126;52.672;13.622;2023-02-01T07:11:01;9.10;75.90
38325;DHT22;24126;52.672;13.622;2023-02-01T07:13:28;9.00;75.80
38325;DHT22;24126;52.672;13.622;2023-02-01T07:15:57;9.00;75.90
38325;DHT22;24126;52.672;13.622;2023-02-01T07:18:24;9.00;76.00
38325;DHT22;24126;52.672;13.622;2023-02-01T07:20:51;9.00;76.00
38325;DHT22;24126;52.672;13.622;2023-02-01T07:23:18;9.10;76.10
38325;DHT22;24126;52.672;13.622;2023-02-01T07:25:46;9.10;76.20
38325;DHT22;24126;52.672;13.622;2023-02-01T07:28:13;9.10;76.20
38325;DHT22;24126;52.672;13.622;2023-02-01T07:30:40;9.10;76.10
38325;DHT22;24126;52.672;13.622;2023-02-01T07:33:07;9.00;76.20
38325;DHT22;24126;52.672;13.622;2023-02-01T07:35:34;9.00;76.20
38325;DHT22;24126;52.672;13.622;2023-02-01T07:38:01;9.10;76.30
38325;DHT22;24126;52.672;13.622;2023-02-01T07:40:28;9.10;76.30
38325;DHT22;24126;52.672;13.622;2023-02-01T07:42:56;9.10;76.20
38325;DHT22;24126;52.672;13.622;2023-02-01T07:45:23;9.10;76.30
38325;DHT22;24126;52.672;13.622;2023-02-01T07:47:51;9.10;76.40
38325;DHT22;24126;52.672;13.622;2023-02-01T07:50:18;9.10;76.40
38325;DHT22;24126;52.672;13.622;2023-02-01T07:52:45;9.10;76.30
38325;DHT22;24126;52.672;13.622;2023-02-01T07:55:12;9.10;76.30
38325;DHT22;24126;52.672;13.622;2023-02-01T07:57:39;9.20;76.40
38325;DHT22;24126;52.672;13.622;2023-02-01T08:00:06;9.20;76.40
38325;DHT22;24126;52.672;13.622;2023-02-01T08:02:51;9.20;76.40
38325;DHT22;24126;52.672;13.622;2023-02-01T08:05:18;9.20;76.40
38325;DHT22;24126;52.672;13.622;2023-02-01T08:07:48;9.20;76.40
38325;DHT22;24126;52.672;13.622;2023-02-01T08:10:15;9.20;76.30
38325;DHT22;24126;52.672;13.622;2023-02-01T08:12:43;9.20;76.30
38325;DHT22;24126;52.672;13.622;2023-02-01T08:15:14;9.20;76.40
38325;DHT22;24126;52.672;13.622;2023-02-01T08:17:48;9.10;76.50
38325;DHT22;24126;52.672;13.622;2023-02-01T08:20:15;9.10;76.60
38325;DHT22;24126;52.672;13.622;2023-02-01T08:22:42;9.20;76.70
38325;DHT22;24126;52.672;13.622;2023-02-01T08:25:10;9.10;76.50
38325;DHT22;24126;52.672;13.622;2023-02-01T08:27:37;9.10;76.50
38325;DHT22;24126;52.672;13.622;2023-02-01T08:30:05;9.10;76.60
38325;DHT22;24126;52.672;13.622;2023-02-01T08:32:33;9.10;76.60
38325;DHT22;24126;52.672;13.622;2023-02-01T08:35:00;9.10;76.60
38325;DHT22;24126;52.672;13.622;2023-02-01T08:37:27;9.00;76.60
38325;DHT22;24126;52.672;13.622;2023-02-01T08:39:54;9.00;76.40
38325;DHT22;24126;52.672;13.622;2023-02-01T08:42:21;9.00;76.50
38325;DHT22;24126;52.672;13.622;2023-02-01T08:45:06;9.00;76.60
38325;DHT22;24126;52.672;13.622;2023-02-01T08:47:34;9.00;76.50
38325;DHT22;24126;52.672;13.622;2023-02-01T08:50:02;9.00;76.40
38325;DHT22;24126;52.672;13.622;2023-02-01T08:52:29;8.90;76.20
38325;DHT22;24126;52.672;13.622;2023-02-01T08:54:56;8.90;76.30
38325;DHT22;24126;52.672;13.622;2023-02-01T08:57:23;8.80;76.20
38325;DHT22;24126;52.672;13.622;2023-02-01T08:59:50;8.80;76.20
38325;DHT22;24126;52.672;13.622;2023-02-01T09:02:17;8.80;76.30
38325;DHT22;24126;52.672;13.622;2023-02-01T09:04:44;8.80;76.40
38325;DHT22;24126;52.672;13.622;2023-02-01T09:07:11;8.80;76.60
38325;DHT22;24126;52.672;13.622;2023-02-01T09:09:39;8.70;76.60
38325;DHT22;24126;52.672;13.622;2023-02-01T09:12:06;8.70;76.70
38325;DHT22;24126;52.672;13.622;2023-02-01T09:14:33;8.70;76.80
38325;DHT22;24126;52.672;13.622;2023-02-01T09:17:00;8.70;76.90
38325;DHT22;24126;52.672;13.622;2023-02-01T09:19:27;8.70;77.00
38325;DHT22;24126;52.672;13.622;2023-02-01T09:21:54;8.70;77.00
38325;DHT22;24126;52.672;13.622;2023-02-01T09:24:21;8.70;77.10
38325;DHT22;24126;52.672;13.622;2023-02-01T09:26:48;8.70;77.00
38325;DHT22;24126;52.672;13.622;2023-02-01T09:29:15;8.80;77.00
38325;DHT22;24126;52.672;13.622;2023-02-01T09:31:42;8.80;77.10
38325;DHT22;24126;52.672;13.622;2023-02-01T09:34:09;8.70;76.90
38325;DHT22;24126;52.672;13.622;2023-02-01T09:36:37;8.80;77.10
38325;DHT22;24126;52.672;13.622;2023-02-01T09:39:04;8.80;77.10
38325;DHT22;24126;52.672;13.622;2023-02-01T09:44:17;8.80;77.10
38325;DHT22;24126;52.672;13.622;2023-02-01T09:46:48;8.80;77.20
38325;DHT22;24126;52.672;13.622;2023-02-01T09:49:21;8.80;77.10
38325;DHT22;24126;52.672;13.622;2023-02-01T09:51:49;8.80;77.20
38325;DHT22;24126;52.672;13.622;2023-02-01T09:54:52;8.80;77.20
38325;DHT22;24126;52.672;13.622;2023-02-01T09:57:14;8.90;77.30
38325;DHT22;24126;52.672;13.622;2023-02-01T09:59:43;8.90;77.20
38325;DHT22;24126;52.672;13.622;2023-02-01T10:02:12;8.90;77.30
38325;DHT22;24126;52.672;13.622;2023-02-01T10:04:41;8.90;77.30
38325;DHT22;24126;52.672;13.622;2023-02-01T10:07:11;9.00;77.30
38325;DHT22;24126;52.672;13.622;2023-02-01T10:09:55;9.00;77.20
38325;DHT22;24126;52.672;13.622;2023-02-01T10:15:22;9.10;77.20
38325;DHT22;24126;52.672;13.622;2023-02-01T10:23:30;9.20;77.00
38325;DHT22;24126;52.672;13.622;2023-02-01T10:26:13;9.20;77.00
38325;DHT22;24126;52.672;13.622;2023-02-01T10:28:42;9.20;76.80
38325;DHT22;24126;52.672;13.622;2023-02-01T10:31:11;9.20;76.80
38325;DHT22;24126;52.672;13.622;2023-02-01T10:33:41;9.20;76.80
38325;DHT22;24126;52.672;13.622;2023-02-01T10:38:40;9.20;76.70
38325;DHT22;24126;52.672;13.622;2023-02-01T10:41:12;9.20;76.60
38325;DHT22;24126;52.672;13.622;2023-02-01T10:43:40;9.20;76.70
38325;DHT22;24126;52.672;13.622;2023-02-01T10:46:08;9.20;76.90
38325;DHT22;24126;52.672;13.622;2023-02-01T10:48:35;9.20;77.20
38325;DHT22;24126;52.672;13.622;2023-02-01T10:51:06;9.30;77.00
38325;DHT22;24126;52.672;13.622;2023-02-01T10:56:21;9.40;76.80
38325;DHT22;24126;52.672;13.622;2023-02-01T10:58:48;9.40;76.60
38325;DHT22;24126;52.672;13.622;2023-02-01T11:01:16;9.40;76.60
38325;DHT22;24126;52.672;13.622;2023-02-01T11:03:45;9.50;76.50
38325;DHT22;24126;52.672;13.622;2023-02-01T11:08:49;9.50;76.50
38325;DHT22;24126;52.672;13.622;2023-02-01T11:11:17;9.50;76.70
38325;DHT22;24126;52.672;13.622;2023-02-01T11:13:54;9.60;76.80
38325;DHT22;24126;52.672;13.622;2023-02-01T11:16:28;9.60;76.70
38325;DHT22;24126;52.672;13.622;2023-02-01T11:18:55;9.70;76.60
38325;DHT22;24126;52.672;13.622;2023-02-01T11:21:22;9.80;76.60
38325;DHT22;24126;52.672;13.622;2023-02-01T11:23:49;9.90;76.50
38325;DHT22;24126;52.672;13.622;2023-02-01T11:28:50;10.10;76.20
38325;DHT22;24126;52.672;13.622;2023-02-01T11:31:18;10.20;75.90
38325;DHT22;24126;52.672;13.622;2023-02-01T11:33:48;10.20;75.70
38325;DHT22;24126;52.672;13.622;2023-02-01T11:36:16;10.20;75.60
38325;DHT22;24126;52.672;13.622;2023-02-01T11:38:52;10.20;75.70
38325;DHT22;24126;52.672;13.622;2023-02-01T11:46:20;10.20;75.50
38325;DHT22;24126;52.672;13.622;2023-02-01T11:48:51;10.20;75.70
38325;DHT22;24126;52.672;13.622;2023-02-01T11:54:10;10.30;75.70
38325;DHT22;24126;52.672;13.622;2023-02-01T11:59:38;10.40;75.60
38325;DHT22;24126;52.672;13.622;2023-02-01T12:03:22;10.40;75.60
38325;DHT22;24126;52.672;13.622;2023-02-01T12:10:33;10.60;75.60
38325;DHT22;24126;52.672;13.622;2023-02-01T12:13:10;10.70;75.10
38325;DHT22;24126;52.672;13.622;2023-02-01T12:15:46;10.60;75.00
38325;DHT22;24126;52.672;13.622;2023-02-01T12:23:27;10.80;75.40
38325;DHT22;24126;52.672;13.622;2023-02-01T12:28:35;10.80;74.60
38325;DHT22;24126;52.672;13.622;2023-02-01T12:31:24;10.80;74.50
38325;DHT22;24126;52.672;13.622;2023-02-01T12:44:42;10.60;74.40
38325;DHT22;24126;52.672;13.622;2023-02-01T12:52:40;10.40;74.90
38325;DHT22;24126;52.672;13.622;2023-02-01T12:57:50;10.20;74.60
38325;DHT22;24126;52.672;13.622;2023-02-01T13:00:22;10.00;74.70
38325;DHT22;24126;52.672;13.622;2023-02-01T13:02:53;9.90;75.00
38325;DHT22;24126;52.672;13.622;2023-02-01T13:05:22;9.90;75.20
38325;DHT22;24126;52.672;13.622;2023-02-01T13:13:31;9.60;75.00
38325;DHT22;24126;52.672;13.622;2023-02-01T13:16:06;9.60;75.10
38325;DHT22;24126;52.672;13.622;2023-02-01T13:18:34;9.60;75.30
38325;DHT22;24126;52.672;13.622;2023-02-01T13:21:03;9.50;75.30
38325;DHT22;24126;52.672;13.622;2023-02-01T13:23:31;9.50;75.50
38325;DHT22;24126;52.672;13.622;2023-02-01T13:26:02;9.50;75.50
38325;DHT22;24126;52.672;13.622;2023-02-01T13:28:40;9.60;75.60
38325;DHT22;24126;52.672;13.622;2023-02-01T13:36:50;9.60;75.60
38325;DHT22;24126;52.672;13.622;2023-02-01T13:41:52;9.70;75.60
38325;DHT22;24126;52.672;13.622;2023-02-01T13:44:23;9.60;75.60
38325;DHT22;24126;52.672;13.622;2023-02-01T13:46:55;9.60;75.60
38325;DHT22;24126;52.672;13.622;2023-02-01T13:49:24;9.60;75.60
38325;DHT22;24126;52.672;13.622;2023-02-01T13:51:53;9.60;75.60
38325;DHT22;24126;52.672;13.622;2023-02-01T13:54:23;9.60;75.60
38325;DHT22;24126;52.672;13.622;2023-02-01T13:56:51;9.60;75.70
38325;DHT22;24126;52.672;13.622;2023-02-01T14:04:51;9.60;75.80
38325;DHT22;24126;52.672;13.622;2023-02-01T14:07:19;9.70;75.70
38325;DHT22;24126;52.672;13.622;2023-02-01T14:09:46;9.60;75.60
38325;DHT22;24126;52.672;13.622;2023-02-01T14:15:16;9.60;75.90
38325;DHT22;24126;52.672;13.622;2023-02-01T14:17:44;9.60;75.90
38325;DHT22;24126;52.672;13.622;2023-02-01T14:23:13;9.60;75.90
38325;DHT22;24126;52.672;13.622;2023-02-01T14:25:41;9.60;75.80
38325;DHT22;24126;52.672;13.622;2023-02-01T14:28:18;9.60;75.80
38325;DHT22;24126;52.672;13.622;2023-02-01T14:30:48;9.60;75.90
38325;DHT22;24126;52.672;13.622;2023-02-01T14:33:24;9.60;75.90
38325;DHT22;24126;52.672;13.622;2023-02-01T14:36:04;9.60;76.10
38325;DHT22;24126;52.672;13.622;2023-02-01T14:38:32;9.60;76.20
38325;DHT22;24126;52.672;13.622;2023-02-01T14:41:24;9.60;76.40
38325;DHT22;24126;52.672;13.622;2023-02-01T14:49:16;9.50;76.90
38325;DHT22;24126;52.672;13.622;2023-02-01T14:51:43;9.60;77.00
38325;DHT22;24126;52.672;13.622;2023-02-01T14:54:11;9.60;77.10
38325;DHT22;24126;52.672;13.622;2023-02-01T14:56:39;9.60;77.00
38325;DHT22;24126;52.672;13.622;2023-02-01T14:59:12;9.60;77.10
38325;DHT22;24126;52.672;13.622;2023-02-01T15:01:53;9.60;77.10
38325;DHT22;24126;52.672;13.622;2023-02-01T15:04:25;9.70;77.20
38325;DHT22;24126;52.672;13.622;2023-02-01T15:07:03;9.70;77.20
38325;DHT22;24126;52.672;13.622;2023-02-01T15:09:34;9.70;77.20
38325;DHT22;24126;52.672;13.622;2023-02-01T15:14:34;9.80;77.20
38325;DHT22;24126;52.672;13.622;2023-02-01T15:17:15;9.80;77.20
38325;DHT22;24126;52.672;13.622;2023-02-01T15:19:54;9.80;77.20
38325;DHT22;24126;52.672;13.622;2023-02-01T15:22:21;9.80;77.30
38325;DHT22;24126;52.672;13.622;2023-02-01T15:24:55;9.80;77.20
38325;DHT22;24126;52.672;13.622;2023-02-01T15:27:24;9.80;77.30
38325;DHT22;24126;52.672;13.622;2023-02-01T15:29:53;9.80;77.40
38325;DHT22;24126;52.672;13.622;2023-02-01T15:32:34;9.90;77.60
38325;DHT22;24126;52.672;13.622;2023-02-01T15:40:54;9.90;77.20
38325;DHT22;24126;52.672;13.622;2023-02-01T15:43:24;9.90;77.10
38325;DHT22;24126;52.672;13.622;2023-02-01T15:45:51;9.80;77.10
38325;DHT22;24126;52.672;13.622;2023-02-01T15:48:22;9.80;77.10
38325;DHT22;24126;52.672;13.622;2023-02-01T15:50:52;9.80;77.30
38325;DHT22;24126;52.672;13.622;2023-02-01T15:53:22;9.70;77.30
38325;DHT22;24126;52.672;13.622;2023-02-01T15:55:51;9.70;77.30
38325;DHT22;24126;52.672;13.622;2023-02-01T15:58:20;9.70;77.30
38325;DHT22;24126;52.672;13.622;2023-02-01T16:03:27;9.60;77.20
38325;DHT22;24126;52.672;13.622;2023-02-01T16:05:56;9.60;77.10
38325;DHT22;24126;52.672;13.622;2023-02-01T16:08:28;9.50;77.00
38325;DHT22;24126;52.672;13.622;2023-02-01T16:11:01;9.50;77.10
38325;DHT22;24126;52.672;13.622;2023-02-01T16:13:28;9.50;77.10
38325;DHT22;24126;52.672;13.622;2023-02-01T16:15:55;9.40;77.10
38325;DHT22;24126;52.672;13.622;2023-02-01T16:18:25;9.40;77.10
38325;DHT22;24126;52.672;13.622;2023-02-01T16:20:52;9.40;76.90
38325;DHT22;24126;52.672;13.622;2023-02-01T16:23:19;9.30;76.90
38325;DHT22;24126;52.672;13.622;2023-02-01T16:25:47;9.30;77.50
38325;DHT22;24126;52.672;13.622;2023-02-01T16:28:17;9.30;77.00
38325;DHT22;24126;52.672;13.622;2023-02-01T16:30:47;9.30;76.80
38325;DHT22;24126;52.672;13.622;2023-02-01T16:33:18;9.30;76.60
38325;DHT22;24126;52.672;13.622;2023-02-01T16:35:47;9.30;76.50
38325;DHT22;24126;52.672;13.622;2023-02-01T16:38:19;9.30;76.30
38325;DHT22;24126;52.672;13.622;2023-02-01T16:40:49;9.30;76.20
38325;DHT22;24126;52.672;13.622;2023-02-01T16:43:21;9.20;76.10
38325;DHT22;24126;52.672;13.622;2023-02-01T16:45:49;9.20;76.10
38325;DHT22;24126;52.672;13.622;2023-02-01T16:48:19;9.20;76.00
38325;DHT22;24126;52.672;13.622;2023-02-01T16:50:49;9.20;76.00
38325;DHT22;24126;52.672;13.622;2023-02-01T16:53:26;9.10;75.90
38325;DHT22;24126;52.672;13.622;2023-02-01T16:55:55;9.10;76.00
38325;DHT22;24126;52.672;13.622;2023-02-01T16:58:25;9.00;76.00
38325;DHT22;24126;52.672;13.622;2023-02-01T17:00:52;9.00;76.10
38325;DHT22;24126;52.672;13.622;2023-02-01T17:03:20;9.00;76.00
38325;DHT22;24126;52.672;13.622;2023-02-01T17:05:50;9.00;76.00
38325;DHT22;24126;52.672;13.622;2023-02-01T17:08:31;9.00;76.00
38325;DHT22;24126;52.672;13.622;2023-02-01T17:10:59;8.90;76.10
38325;DHT22;24126;52.672;13.622;2023-02-01T17:13:54;8.90;76.10
38325;DHT22;24126;52.672;13.622;2023-02-01T17:16:25;8.90;76.00
38325;DHT22;24126;52.672;13.622;2023-02-01T17:19:05;8.90;76.00
38325;DHT22;24126;52.672;13.622;2023-02-01T17:21:41;8.90;76.10
38325;DHT22;24126;52.672;13.622;2023-02-01T17:24:16;8.80;76.00
38325;DHT22;24126;52.672;13.622;2023-02-01T17:26:43;8.80;75.90
38325;DHT22;24126;52.672;13.622;2023-02-01T17:29:12;8.80;76.10
38325;DHT22;24126;52.672;13.622;2023-02-01T17:31:42;8.70;76.10
38325;DHT22;24126;52.672;13.622;2023-02-01T17:34:15;8.70;76.20
38325;DHT22;24126;52.672;13.622;2023-02-01T17:37:05;8.70;76.20
38325;DHT22;24126;52.672;13.622;2023-02-01T17:39:51;8.70;76.40
38325;DHT22;24126;52.672;13.622;2023-02-01T17:42:21;8.70;76.40
38325;DHT22;24126;52.672;13.622;2023-02-01T17:44:54;8.70;76.40
38325;DHT22;24126;52.672;13.622;2023-02-01T17:47:25;8.70;76.40
38325;DHT22;24126;52.672;13.622;2023-02-01T17:49:52;8.70;76.40
38325;DHT22;24126;52.672;13.622;2023-02-01T17:52:22;8.60;76.30
38325;DHT22;24126;52.672;13.622;2023-02-01T17:54:50;8.60;76.50
38325;DHT22;24126;52.672;13.622;2023-02-01T17:57:19;8.60;76.60
38325;DHT22;24126;52.672;13.622;2023-02-01T17:59:48;8.60;76.80
38325;DHT22;24126;52.672;13.622;2023-02-01T18:02:20;8.60;76.80